createdAt,value
2022-08-23T00:01:31.122Z,18.69
2022-08-23T00:04:01.553Z,18.67
2022-08-23T00:06:28.641Z,18.65
2022-08-23T00:08:55.566Z,18.62
2022-08-23T00:11:24.767Z,18.57
2022-08-23T00:13:51.285Z,18.52
2022-08-23T00:16:17.853Z,18.47
2022-08-23T00:18:49.278Z,18.45
2022-08-23T00:21:16.754Z,18.41
2022-08-23T00:23:43.248Z,18.38
2022-08-23T00:26:10.134Z,18.35
2022-08-23T00:28:36.674Z,18.30
2022-08-23T00:31:03.934Z,18.28
2022-08-23T00:33:30.456Z,18.25
2022-08-23T00:35:56.971Z,18.21
2022-08-23T00:38:32.564Z,18.17
2022-08-23T00:41:02.155Z,18.16
2022-08-23T00:43:57.740Z,18.11
2022-08-23T00:47:02.756Z,18.09
2022-08-23T00:49:31.978Z,18.07
2022-08-23T00:52:10.698Z,17.98
2022-08-23T00:54:39.364Z,17.95
2022-08-23T00:57:16.364Z,17.91
2022-08-23T00:59:42.817Z,17.95
2022-08-23T01:02:09.933Z,18.03
2022-08-23T01:04:44.553Z,18.08
2022-08-23T01:07:22.162Z,18.12
2022-08-23T01:09:51.921Z,18.10
2022-08-23T01:12:37.581Z,18.10
2022-08-23T01:15:16.100Z,18.14
2022-08-23T01:17:50.032Z,18.16
2022-08-23T01:20:22.408Z,18.13
2022-08-23T01:23:02.467Z,18.02
2022-08-23T01:25:32.843Z,17.98
2022-08-23T01:28:00.419Z,18.03
2022-08-23T01:30:32.532Z,18.00
2022-08-23T01:33:04.138Z,18.00
2022-08-23T01:35:36.341Z,17.97
2022-08-23T01:38:02.872Z,17.91
2022-08-23T01:40:29.975Z,17.93
2022-08-23T01:42:56.566Z,17.92
2022-08-23T01:45:23.087Z,17.97
2022-08-23T01:47:49.671Z,18.00
2022-08-23T01:50:16.172Z,17.99
2022-08-23T01:52:47.163Z,17.97
2022-08-23T01:55:14.552Z,17.95
2022-08-23T01:57:43.184Z,17.91
2022-08-23T02:00:13.587Z,17.84
2022-08-23T02:02:41.150Z,17.71
2022-08-23T02:05:09.819Z,17.65
2022-08-23T02:07:36.306Z,17.55
2022-08-23T02:10:07.304Z,17.49
2022-08-23T02:12:33.841Z,17.44
2022-08-23T02:15:00.374Z,17.45
2022-08-23T02:17:28.137Z,17.48
2022-08-23T02:19:55.771Z,17.47
2022-08-23T02:22:23.148Z,17.48
2022-08-23T02:24:50.267Z,17.46
2022-08-23T02:27:17.536Z,17.41
2022-08-23T02:29:45.911Z,17.30
2022-08-23T02:32:14.902Z,17.18
2022-08-23T02:34:42.979Z,17.14
2022-08-23T02:37:11.478Z,17.21
2022-08-23T02:39:39.102Z,17.24
2022-08-23T02:42:07.026Z,17.24
2022-08-23T02:44:34.772Z,17.23
2022-08-23T02:47:02.782Z,17.21
2022-08-23T02:49:29.824Z,17.22
2022-08-23T02:51:57.217Z,17.17
2022-08-23T02:54:24.172Z,17.01
2022-08-23T02:56:52.756Z,16.90
2022-08-23T02:59:19.232Z,16.92
2022-08-23T03:01:45.722Z,16.98
2022-08-23T03:04:12.425Z,17.05
2022-08-23T03:06:39.119Z,17.06
2022-08-23T03:09:08.739Z,17.07
2022-08-23T03:11:35.911Z,17.06
2022-08-23T03:14:02.475Z,17.10
2022-08-23T03:16:29.250Z,17.08
2022-08-23T03:18:55.935Z,17.08
2022-08-23T03:21:22.577Z,17.13
2022-08-23T03:23:49.178Z,17.15
2022-08-23T03:26:16.247Z,17.19
2022-08-23T03:28:44.367Z,17.25
2022-08-23T03:31:12.341Z,17.32
2022-08-23T03:33:39.360Z,17.31
2022-08-23T03:36:07.978Z,17.33
2022-08-23T03:38:34.776Z,17.37
2022-08-23T03:41:01.856Z,17.40
2022-08-23T03:43:29.363Z,17.44
2022-08-23T03:45:55.910Z,17.46
2022-08-23T03:48:22.688Z,17.49
2022-08-23T03:50:49.205Z,17.48
2022-08-23T03:53:16.280Z,17.48
2022-08-23T03:55:43.714Z,17.48
2022-08-23T03:58:11.758Z,17.52
2022-08-23T04:00:38.447Z,17.51
2022-08-23T04:03:05.235Z,17.54
2022-08-23T04:05:31.682Z,17.51
2022-08-23T04:07:58.517Z,17.55
2022-08-23T04:10:25.847Z,17.59
2022-08-23T04:12:54.795Z,17.63
2022-08-23T04:15:22.648Z,17.67
2022-08-23T04:17:49.403Z,17.70
2022-08-23T04:20:16.613Z,17.66
2022-08-23T04:22:43.314Z,17.62
2022-08-23T04:25:32.853Z,17.54
2022-08-23T04:27:59.758Z,17.53
2022-08-23T04:30:27.166Z,17.53
2022-08-23T04:32:54.467Z,17.54
2022-08-23T04:35:22.374Z,17.52
2022-08-23T04:37:48.935Z,17.53
2022-08-23T04:40:35.828Z,17.51
2022-08-23T04:43:02.544Z,17.51
2022-08-23T04:45:29.324Z,17.50
2022-08-23T04:47:56.058Z,17.49
2022-08-23T04:50:22.592Z,17.51
2022-08-23T04:52:49.030Z,17.55
2022-08-23T04:55:16.635Z,17.58
2022-08-23T04:57:43.322Z,17.60
2022-08-23T05:00:13.622Z,17.62
2022-08-23T05:02:40.241Z,17.63
2022-08-23T05:05:08.511Z,17.63
2022-08-23T05:07:42.678Z,17.65
2022-08-23T05:10:12.822Z,17.68
2022-08-23T05:12:40.387Z,17.69
2022-08-23T05:15:11.240Z,17.70
2022-08-23T05:17:38.794Z,17.66
2022-08-23T05:20:06.937Z,17.63
2022-08-23T05:22:34.852Z,17.70
2022-08-23T05:25:01.396Z,17.79
2022-08-23T05:27:27.925Z,17.83
2022-08-23T05:29:54.461Z,17.85
2022-08-23T05:32:22.783Z,17.91
2022-08-23T05:34:49.611Z,17.90
2022-08-23T05:37:17.168Z,17.87
2022-08-23T05:39:43.989Z,17.93
2022-08-23T05:42:13.678Z,18.00
2022-08-23T05:44:40.202Z,18.06
2022-08-23T05:47:11.154Z,18.14
2022-08-23T05:49:39.164Z,18.21
2022-08-23T05:52:07.292Z,18.24
2022-08-23T05:54:34.962Z,18.25
2022-08-23T05:57:02.088Z,18.30
2022-08-23T05:59:28.778Z,18.34
2022-08-23T06:01:56.562Z,18.36
2022-08-23T06:04:23.457Z,18.40
2022-08-23T06:06:49.929Z,18.47
2022-08-23T06:09:18.133Z,18.51
2022-08-23T06:11:46.666Z,18.56
2022-08-23T06:14:13.353Z,18.59
2022-08-23T06:16:43.598Z,18.62
2022-08-23T06:19:11.080Z,18.64
2022-08-23T06:21:38.216Z,18.71
2022-08-23T06:24:05.110Z,18.83
2022-08-23T06:26:35.055Z,18.92
2022-08-23T06:29:05.973Z,19.00
2022-08-23T06:31:45.404Z,19.06
2022-08-23T06:34:13.822Z,19.12
2022-08-23T06:36:41.007Z,19.18
2022-08-23T06:39:09.927Z,19.25
2022-08-23T06:41:37.860Z,19.33
2022-08-23T06:44:04.773Z,19.36
2022-08-23T06:46:32.991Z,19.46
2022-08-23T06:49:00.816Z,19.56
2022-08-23T06:51:30.531Z,19.65
2022-08-23T06:54:03.210Z,19.72
2022-08-23T06:56:30.391Z,19.75
2022-08-23T06:58:56.902Z,19.82
2022-08-23T07:02:17.203Z,19.96
2022-08-23T07:04:43.876Z,20.10
2022-08-23T07:07:11.894Z,20.18
2022-08-23T07:09:40.195Z,20.20
2022-08-23T07:12:07.294Z,20.19
2022-08-23T07:14:34.339Z,20.22
2022-08-23T07:17:03.334Z,20.27
2022-08-23T07:19:32.696Z,20.30
2022-08-23T07:22:00.475Z,20.31
2022-08-23T07:24:32.687Z,20.32
2022-08-23T07:27:01.455Z,20.33
2022-08-23T07:29:29.910Z,20.29
2022-08-23T07:31:57.141Z,20.29
2022-08-23T07:34:25.140Z,20.43
2022-08-23T07:36:53.212Z,20.54
2022-08-23T07:39:22.235Z,20.55
2022-08-23T07:41:49.469Z,20.49
2022-08-23T07:44:18.262Z,20.54
2022-08-23T07:46:46.627Z,20.70
2022-08-23T07:49:14.280Z,20.85
2022-08-23T07:51:45.412Z,20.91
2022-08-23T07:54:13.185Z,21.01
2022-08-23T07:56:39.556Z,21.12
2022-08-23T07:59:08.152Z,21.22
2022-08-23T08:01:37.081Z,21.31
2022-08-23T08:04:05.745Z,21.41
2022-08-23T08:06:40.357Z,21.48
2022-08-23T08:09:09.122Z,21.48
2022-08-23T08:11:36.394Z,21.58
2022-08-23T08:14:09.050Z,21.70
2022-08-23T08:16:42.338Z,21.83
2022-08-23T08:19:11.313Z,21.91
2022-08-23T08:21:42.063Z,21.94
2022-08-23T08:24:10.525Z,21.93
2022-08-23T08:26:37.692Z,21.94
2022-08-23T08:29:05.014Z,21.92
2022-08-23T08:31:31.684Z,21.87
2022-08-23T08:33:58.407Z,21.85
2022-08-23T08:36:46.911Z,21.94
2022-08-23T08:39:24.618Z,22.05
2022-08-23T08:42:09.839Z,22.10
2022-08-23T08:44:49.599Z,22.26
2022-08-23T08:47:47.039Z,22.55
2022-08-23T08:50:26.565Z,22.86
2022-08-23T08:53:04.434Z,23.01
2022-08-23T08:55:38.780Z,23.13
2022-08-23T08:58:06.673Z,23.33
2022-08-23T09:00:37.980Z,23.51
2022-08-23T09:03:12.462Z,23.62
2022-08-23T09:05:50.255Z,23.81
2022-08-23T09:08:32.722Z,23.90
2022-08-23T09:11:22.127Z,23.96
2022-08-23T09:14:07.205Z,24.02
2022-08-23T09:16:46.467Z,24.06
2022-08-23T09:19:13.139Z,24.08
2022-08-23T09:22:02.745Z,24.16
2022-08-23T09:24:30.465Z,24.21
2022-08-23T09:26:57.599Z,24.23
2022-08-23T09:29:31.009Z,24.34
2022-08-23T09:32:03.751Z,24.46
2022-08-23T09:34:30.498Z,24.57
2022-08-23T09:37:15.257Z,24.62
2022-08-23T09:39:49.607Z,24.57
2022-08-23T09:42:37.953Z,24.67
2022-08-23T09:45:06.737Z,24.82
2022-08-23T09:47:44.193Z,24.97
2022-08-23T09:50:26.234Z,25.04
2022-08-23T09:53:09.661Z,25.16
2022-08-23T09:55:40.180Z,25.14
2022-08-23T09:58:18.659Z,25.11
2022-08-23T10:01:01.036Z,25.14
2022-08-23T10:03:29.595Z,25.15
2022-08-23T10:05:59.302Z,25.22
2022-08-23T10:08:32.845Z,25.22
2022-08-23T10:11:12.936Z,25.35
2022-08-23T10:13:42.632Z,25.44
2022-08-23T10:16:30.552Z,25.57
2022-08-23T10:19:25.700Z,25.66
2022-08-23T10:22:10.196Z,25.81
2022-08-23T10:25:04.339Z,25.95
2022-08-23T10:28:37.284Z,25.98
2022-08-23T10:31:31.190Z,25.93
2022-08-23T10:34:18.965Z,25.93
2022-08-23T10:36:55.066Z,25.99
2022-08-23T10:39:27.332Z,26.12
2022-08-23T10:42:13.068Z,26.22
2022-08-23T10:44:40.630Z,26.44
2022-08-23T10:47:10.040Z,26.55
2022-08-23T10:49:38.617Z,26.74
2022-08-23T10:52:08.196Z,27.15
2022-08-23T10:54:46.579Z,27.34
2022-08-23T10:57:20.418Z,27.31
2022-08-23T10:59:50.225Z,27.23
2022-08-23T11:02:28.984Z,27.29
2022-08-23T11:05:21.614Z,27.43
2022-08-23T11:08:06.222Z,27.50
2022-08-23T11:10:41.708Z,27.51
2022-08-23T11:13:26.737Z,27.53
2022-08-23T11:16:13.199Z,27.63
2022-08-23T11:18:45.650Z,27.89
2022-08-23T11:21:17.947Z,27.98
2022-08-23T11:23:59.671Z,28.24
2022-08-23T11:26:26.056Z,28.51
2022-08-23T11:29:18.205Z,28.76
2022-08-23T11:31:56.310Z,28.95
2022-08-23T11:34:30.109Z,28.92
2022-08-23T11:37:21.941Z,28.95
2022-08-23T11:39:57.777Z,29.10
2022-08-23T11:42:44.157Z,29.05
2022-08-23T11:45:33.258Z,29.26
2022-08-23T11:48:13.796Z,29.51
2022-08-23T11:50:59.865Z,29.45
2022-08-23T11:53:44.869Z,29.22
2022-08-23T11:56:23.391Z,29.18
2022-08-23T11:59:16.257Z,29.24
2022-08-23T12:01:45.595Z,29.26
2022-08-23T12:04:38.211Z,29.09
2022-08-23T12:07:12.557Z,28.92
2022-08-23T12:09:42.025Z,28.74
2022-08-23T12:12:26.980Z,28.63
2022-08-23T12:14:59.651Z,28.75
2022-08-23T12:17:26.487Z,28.68
2022-08-23T12:20:16.859Z,28.76
2022-08-23T12:23:28.289Z,28.65
2022-08-23T12:26:30.158Z,28.77
2022-08-23T12:29:04.626Z,28.98
2022-08-23T12:31:43.435Z,28.97
2022-08-23T12:34:25.596Z,29.12
2022-08-23T12:37:07.644Z,29.63
2022-08-23T12:39:48.163Z,30.01
2022-08-23T12:42:18.346Z,30.12
2022-08-23T12:44:47.383Z,30.01
2022-08-23T12:47:20.552Z,29.89
2022-08-23T12:50:00.738Z,29.96
2022-08-23T12:52:32.016Z,30.01
2022-08-23T12:54:59.223Z,29.66
2022-08-23T12:57:42.312Z,29.66
2022-08-23T13:00:16.728Z,29.80
2022-08-23T13:02:58.452Z,29.98
2022-08-23T13:05:40.663Z,30.11
2022-08-23T13:08:15.898Z,30.21
2022-08-23T13:10:44.794Z,30.35
2022-08-23T13:13:14.726Z,30.42
2022-08-23T13:15:47.537Z,30.34
2022-08-23T13:18:28.547Z,30.37
2022-08-23T13:21:23.120Z,30.21
2022-08-23T13:23:56.302Z,30.24
2022-08-23T13:26:40.655Z,30.43
2022-08-23T13:29:24.161Z,30.54
2022-08-23T13:32:03.336Z,30.51
2022-08-23T13:34:48.618Z,30.48
2022-08-23T13:37:20.882Z,30.27
2022-08-23T13:39:51.338Z,29.66
2022-08-23T13:42:38.264Z,29.58
2022-08-23T13:45:29.516Z,29.82
2022-08-23T13:48:00.430Z,29.93
2022-08-23T13:50:36.710Z,29.97
2022-08-23T13:53:14.960Z,29.60
2022-08-23T13:55:52.126Z,29.69
2022-08-23T13:58:29.516Z,29.98
2022-08-23T14:00:58.900Z,30.13
2022-08-23T14:03:28.616Z,30.23
2022-08-23T14:05:55.300Z,30.32
2022-08-23T14:08:21.898Z,30.44
2022-08-23T14:10:48.645Z,30.51
2022-08-23T14:13:17.221Z,30.53
2022-08-23T14:18:33.435Z,30.40
2022-08-23T14:21:00.697Z,30.39
2022-08-23T14:23:27.153Z,30.41
2022-08-23T14:25:56.622Z,30.50
2022-08-23T14:28:26.488Z,30.45
2022-08-23T14:30:57.236Z,30.46
2022-08-23T14:33:23.970Z,30.41
2022-08-23T14:35:52.309Z,30.47
2022-08-23T14:38:19.117Z,30.54
2022-08-23T14:40:55.915Z,30.58
2022-08-23T14:43:22.507Z,30.55
2022-08-23T14:45:52.878Z,30.62
2022-08-23T14:48:19.684Z,30.63
2022-08-23T14:50:46.913Z,30.50
2022-08-23T14:53:15.554Z,30.53
2022-08-23T14:55:42.057Z,30.54
2022-08-23T14:58:08.745Z,30.58
2022-08-23T15:00:36.459Z,30.40
2022-08-23T15:03:09.809Z,30.37
2022-08-23T15:05:36.933Z,30.35
2022-08-23T15:08:03.699Z,30.39
2022-08-23T15:13:26.986Z,30.44
2022-08-23T15:15:55.589Z,30.42
2022-08-23T15:18:22.202Z,30.42
2022-08-23T15:20:49.083Z,30.36
2022-08-23T15:23:19.068Z,30.23
2022-08-23T15:25:45.638Z,30.25
2022-08-23T15:28:15.932Z,30.36
2022-08-23T15:30:43.274Z,30.31
2022-08-23T15:33:10.161Z,30.18
2022-08-23T15:35:41.546Z,29.84
2022-08-23T15:38:13.768Z,29.78
2022-08-23T15:40:40.405Z,29.70
2022-08-23T15:43:07.367Z,29.59
2022-08-23T15:45:34.740Z,29.63
2022-08-23T15:48:12.088Z,29.52
2022-08-23T15:50:42.465Z,29.52
2022-08-23T15:53:08.947Z,29.67
2022-08-23T15:55:35.623Z,29.73
2022-08-23T15:58:02.316Z,29.83
2022-08-23T16:00:29.273Z,29.87
2022-08-23T16:03:18.960Z,29.91
2022-08-23T16:05:44.912Z,29.92
2022-08-23T16:08:21.693Z,29.90
2022-08-23T16:10:48.244Z,29.88
2022-08-23T16:13:14.780Z,29.84
2022-08-23T16:15:41.325Z,29.71
2022-08-23T16:18:08.069Z,29.69
2022-08-23T16:20:34.656Z,29.68
2022-08-23T16:23:01.306Z,29.63
2022-08-23T16:25:28.673Z,29.63
2022-08-23T16:27:55.382Z,29.44
2022-08-23T16:30:22.004Z,29.27
2022-08-23T16:32:48.536Z,29.19
2022-08-23T16:35:15.051Z,29.10
2022-08-23T16:37:41.691Z,29.17
2022-08-23T16:40:09.258Z,29.20
2022-08-23T16:42:35.788Z,29.18
2022-08-23T16:45:02.369Z,29.12
2022-08-23T16:47:32.175Z,29.01
2022-08-23T16:49:58.629Z,28.83
2022-08-23T16:52:34.264Z,28.81
2022-08-23T16:55:00.921Z,28.75
2022-08-23T16:57:27.384Z,28.72
2022-08-23T16:59:55.607Z,28.60
2022-08-23T17:02:35.089Z,28.59
2022-08-23T17:05:02.920Z,28.63
2022-08-23T17:07:29.498Z,28.63
2022-08-23T17:09:56.121Z,28.67
2022-08-23T17:12:22.565Z,28.65
2022-08-23T17:14:50.771Z,28.59
2022-08-23T17:17:17.873Z,28.50
2022-08-23T17:19:44.534Z,28.40
2022-08-23T17:22:11.395Z,28.38
2022-08-23T17:24:37.950Z,28.26
2022-08-23T17:27:05.313Z,28.16
2022-08-23T17:29:32.638Z,28.07
2022-08-23T17:32:04.763Z,27.90
2022-08-23T17:34:31.269Z,27.87
2022-08-23T17:36:57.978Z,27.89
2022-08-23T17:39:29.011Z,27.96
2022-08-23T17:41:56.641Z,27.97
2022-08-23T17:44:23.041Z,27.97
2022-08-23T17:46:50.622Z,27.92
2022-08-23T17:49:18.224Z,27.87
2022-08-23T17:51:44.787Z,27.83
2022-08-23T17:54:15.960Z,27.76
2022-08-23T17:56:50.105Z,27.68
2022-08-23T17:59:17.768Z,27.55
2022-08-23T18:01:44.239Z,27.47
2022-08-23T18:04:11.682Z,27.34
2022-08-23T18:06:38.262Z,27.25
2022-08-23T18:09:06.596Z,27.25
2022-08-23T18:11:36.454Z,27.17
2022-08-23T18:14:03.940Z,27.09
2022-08-23T18:16:35.355Z,26.97
2022-08-23T18:19:03.851Z,26.81
2022-08-23T18:21:31.049Z,26.74
2022-08-23T18:23:58.250Z,26.68
2022-08-23T18:26:43.439Z,26.63
2022-08-23T18:29:12.258Z,26.46
2022-08-23T18:31:40.897Z,26.32
2022-08-23T18:34:07.495Z,26.20
2022-08-23T18:36:34.424Z,26.09
2022-08-23T18:39:01.206Z,25.94
2022-08-23T18:41:28.171Z,25.86
2022-08-23T18:43:54.945Z,25.85
2022-08-23T18:46:21.513Z,25.75
2022-08-23T18:48:53.602Z,25.66
2022-08-23T18:51:20.903Z,25.62
2022-08-23T18:53:47.441Z,25.58
2022-08-23T18:56:13.878Z,25.60
2022-08-23T18:58:40.368Z,25.55
2022-08-23T19:01:27.980Z,25.47
2022-08-23T19:03:56.056Z,25.41
2022-08-23T19:06:23.503Z,25.34
2022-08-23T19:08:50.048Z,25.28
2022-08-23T19:11:16.543Z,25.26
2022-08-23T19:13:43.090Z,25.20
2022-08-23T19:16:15.489Z,25.18
2022-08-23T19:18:44.842Z,25.16
2022-08-23T19:21:13.755Z,25.20
2022-08-23T19:23:41.221Z,25.13
2022-08-23T19:26:15.913Z,25.06
2022-08-23T19:28:43.071Z,25.04
2022-08-23T19:31:10.385Z,25.01
2022-08-23T19:33:37.566Z,24.95
2022-08-23T19:36:04.660Z,24.85
2022-08-23T19:38:31.933Z,24.80
2022-08-23T19:41:00.237Z,24.80
2022-08-23T19:43:26.902Z,24.78
2022-08-23T19:45:54.614Z,24.79
2022-08-23T19:48:22.037Z,24.77
2022-08-23T19:50:49.580Z,24.77
2022-08-23T19:53:18.086Z,24.76
2022-08-23T19:55:45.141Z,24.73
2022-08-23T19:58:13.523Z,24.68
2022-08-23T20:00:40.904Z,24.59
2022-08-23T20:03:07.554Z,24.51
2022-08-23T20:05:34.336Z,24.34
2022-08-23T20:08:01.264Z,24.20
2022-08-23T20:10:28.162Z,24.16
2022-08-23T20:12:54.761Z,24.16
2022-08-23T20:15:21.414Z,24.07
2022-08-23T20:17:47.899Z,24.05
2022-08-23T20:20:14.434Z,24.06
2022-08-23T20:22:59.773Z,24.00
2022-08-23T20:25:26.318Z,23.93
2022-08-23T20:27:52.783Z,23.87
2022-08-23T20:30:19.307Z,23.87
2022-08-23T20:32:45.826Z,23.88
2022-08-23T20:35:12.966Z,23.84
2022-08-23T20:37:39.487Z,23.79
2022-08-23T20:40:07.732Z,23.75
2022-08-23T20:42:34.257Z,23.73
2022-08-23T20:45:00.738Z,23.70
2022-08-23T20:47:27.334Z,23.67
2022-08-23T20:49:53.941Z,23.62
2022-08-23T20:52:20.456Z,23.60
2022-08-23T20:54:46.986Z,23.49
2022-08-23T20:57:13.589Z,23.41
2022-08-23T20:59:44.434Z,23.41
2022-08-23T21:02:11.709Z,23.41
2022-08-23T21:04:38.297Z,23.38
2022-08-23T21:07:08.301Z,23.34
2022-08-23T21:09:35.343Z,23.29
2022-08-23T21:12:01.776Z,23.24
2022-08-23T21:14:28.236Z,23.23
2022-08-23T21:16:54.685Z,23.18
2022-08-23T21:19:22.375Z,23.11
2022-08-23T21:21:48.906Z,23.07
2022-08-23T21:24:16.239Z,23.03
2022-08-23T21:26:43.091Z,23.01
2022-08-23T21:29:10.386Z,22.97
2022-08-23T21:31:37.616Z,22.94
2022-08-23T21:34:04.778Z,22.89
2022-08-23T21:36:31.487Z,22.83
2022-08-23T21:38:57.916Z,22.78
2022-08-23T21:41:43.153Z,22.76
2022-08-23T21:44:15.224Z,22.75
2022-08-23T21:46:42.790Z,22.71
2022-08-23T21:49:12.192Z,22.68
2022-08-23T21:51:39.668Z,22.65
2022-08-23T21:54:08.972Z,22.63
2022-08-23T21:56:36.518Z,22.59
2022-08-23T21:59:06.393Z,22.50
2022-08-23T22:01:35.511Z,22.38
2022-08-23T22:04:07.555Z,22.26
2022-08-23T22:06:35.040Z,22.16
2022-08-23T22:09:02.609Z,22.14
2022-08-23T22:11:29.155Z,22.16
2022-08-23T22:13:56.378Z,22.17
2022-08-23T22:16:23.012Z,22.17
2022-08-23T22:18:49.558Z,22.11
2022-08-23T22:21:16.296Z,22.04
2022-08-23T22:23:44.510Z,21.94
2022-08-23T22:26:13.640Z,21.94
2022-08-23T22:28:44.414Z,21.98
2022-08-23T22:31:13.344Z,21.93
2022-08-23T22:33:41.455Z,21.91
2022-08-23T22:36:11.439Z,21.89
2022-08-23T22:38:39.037Z,21.87
2022-08-23T22:41:06.070Z,21.83
2022-08-23T22:43:33.097Z,21.83
2022-08-23T22:46:01.578Z,21.79
2022-08-23T22:48:31.426Z,21.76
2022-08-23T22:51:14.580Z,21.74
2022-08-23T22:53:44.501Z,21.71
2022-08-23T22:56:14.883Z,21.56
2022-08-23T22:58:41.519Z,21.51
2022-08-23T23:01:13.263Z,21.53
2022-08-23T23:03:41.302Z,21.51
2022-08-23T23:06:09.645Z,21.49
2022-08-23T23:08:37.032Z,21.48
2022-08-23T23:11:10.639Z,21.46
2022-08-23T23:13:37.844Z,21.44
2022-08-23T23:16:06.890Z,21.40
2022-08-23T23:18:34.428Z,21.40
2022-08-23T23:21:03.003Z,21.36
2022-08-23T23:23:31.203Z,21.25
2022-08-23T23:25:58.804Z,21.18
2022-08-23T23:28:25.859Z,21.09
2022-08-23T23:30:54.047Z,20.96
2022-08-23T23:33:21.618Z,20.77
2022-08-23T23:35:48.767Z,20.67
2022-08-23T23:38:15.978Z,20.63
2022-08-23T23:40:43.667Z,20.65
2022-08-23T23:43:13.201Z,20.62
2022-08-23T23:45:40.366Z,20.56
2022-08-23T23:48:08.125Z,20.43
2022-08-23T23:50:36.838Z,20.44
2022-08-23T23:53:04.267Z,20.49
2022-08-23T23:55:30.817Z,20.52
2022-08-23T23:57:57.358Z,20.56
